createdAt,value
2018-04-14T00:00:09.767Z,1.37
2018-04-14T00:01:12.271Z,1.43
2018-04-14T00:02:14.765Z,1.43
2018-04-14T00:03:17.290Z,1.50
2018-04-14T00:04:19.763Z,1.50
2018-04-14T00:05:22.267Z,1.60
2018-04-14T00:06:24.753Z,1.70
2018-04-14T00:07:27.241Z,1.50
2018-04-14T00:08:29.767Z,1.60
2018-04-14T00:09:32.265Z,1.37
2018-04-14T00:10:34.739Z,1.67
2018-04-14T00:11:37.215Z,1.60
2018-04-14T00:12:39.700Z,1.50
2018-04-14T00:13:42.192Z,1.53
2018-04-14T00:14:44.702Z,1.73
2018-04-14T00:15:47.188Z,1.60
2018-04-14T00:16:49.695Z,1.60
2018-04-14T00:17:52.206Z,1.63
2018-04-14T00:18:54.767Z,1.70
2018-04-14T00:19:57.330Z,1.57
2018-04-14T00:20:59.806Z,1.33
2018-04-14T00:22:02.347Z,1.40
2018-04-14T00:23:04.823Z,1.30
2018-04-14T00:24:07.373Z,1.57
2018-04-14T00:25:09.826Z,1.60
2018-04-14T00:26:12.317Z,1.67
2018-04-14T00:27:14.797Z,1.40
2018-04-14T00:28:17.281Z,1.50
2018-04-14T00:29:19.823Z,1.70
2018-04-14T00:30:22.339Z,1.43
2018-04-14T00:31:24.832Z,1.60
2018-04-14T00:32:27.320Z,1.50
2018-04-14T00:33:29.823Z,2.07
2018-04-14T00:34:32.346Z,1.70
2018-04-14T00:35:34.822Z,1.50
2018-04-14T00:36:37.309Z,1.50
2018-04-14T00:37:39.795Z,1.47
2018-04-14T00:38:42.304Z,1.47
2018-04-14T00:39:44.818Z,1.53
2018-04-14T00:40:47.321Z,1.27
2018-04-14T00:41:49.798Z,1.30
2018-04-14T00:42:52.284Z,1.57
2018-04-14T00:43:54.856Z,1.40
2018-04-14T00:44:57.380Z,1.63
2018-04-14T00:46:00.001Z,1.43
2018-04-14T00:47:02.556Z,1.40
2018-04-14T00:48:05.102Z,1.70
2018-04-14T00:49:07.593Z,1.70
2018-04-14T00:50:10.101Z,1.40
2018-04-14T00:51:12.597Z,1.63
2018-04-14T00:52:15.098Z,1.60
2018-04-14T00:53:29.585Z,1.50
2018-04-14T00:54:32.075Z,1.40
2018-04-14T00:55:34.613Z,1.50
2018-04-14T00:56:37.108Z,1.47
2018-04-14T00:57:39.626Z,1.10
2018-04-14T00:58:42.114Z,1.30
2018-04-14T00:59:44.621Z,1.50
2018-04-14T01:00:47.102Z,1.17
2018-04-14T01:01:49.605Z,1.37
2018-04-14T01:02:52.119Z,1.37
2018-04-14T01:03:54.627Z,1.50
2018-04-14T01:04:57.118Z,1.77
2018-04-14T01:05:59.619Z,1.47
2018-04-14T01:07:02.132Z,1.43
2018-04-14T01:08:04.620Z,1.83
2018-04-14T01:09:07.145Z,1.27
2018-04-14T01:10:09.671Z,1.40
2018-04-14T01:11:12.161Z,1.10
2018-04-14T01:12:14.669Z,1.50
2018-04-14T01:13:17.163Z,1.20
2018-04-14T01:14:19.638Z,1.30
2018-04-14T01:15:22.162Z,1.60
2018-04-14T01:16:24.649Z,1.23
2018-04-14T01:17:27.137Z,1.30
2018-04-14T01:18:29.610Z,1.30
2018-04-14T01:19:32.083Z,1.30
2018-04-14T01:20:34.591Z,1.63
2018-04-14T01:21:37.097Z,1.73
2018-04-14T01:22:39.646Z,1.33
2018-04-14T01:23:42.106Z,1.43
2018-04-14T01:24:44.592Z,1.73
2018-04-14T01:25:47.113Z,1.70
2018-04-14T01:26:49.605Z,1.37
2018-04-14T01:27:52.093Z,1.33
2018-04-14T01:28:54.674Z,1.43
2018-04-14T01:29:57.253Z,1.50
2018-04-14T01:30:59.776Z,1.10
2018-04-14T01:32:02.280Z,1.50
2018-04-14T01:33:04.755Z,1.60
2018-04-14T01:34:07.222Z,1.43
2018-04-14T01:35:09.702Z,1.30
2018-04-14T01:36:12.202Z,1.27
2018-04-14T01:37:14.689Z,1.30
2018-04-14T01:38:17.159Z,1.47
2018-04-14T01:39:19.664Z,1.50
2018-04-14T01:40:22.148Z,1.40
2018-04-14T01:41:24.666Z,1.10
2018-04-14T01:42:27.142Z,1.30
2018-04-14T01:43:29.709Z,1.40
2018-04-14T01:44:32.197Z,1.50
2018-04-14T01:45:34.671Z,1.20
2018-04-14T01:46:37.157Z,1.30
2018-04-14T01:47:39.645Z,1.60
2018-04-14T01:48:42.119Z,1.33
2018-04-14T01:49:44.619Z,1.60
2018-04-14T01:50:47.122Z,1.63
2018-04-14T01:51:49.645Z,1.40
2018-04-14T01:52:52.135Z,1.30
2018-04-14T01:53:54.635Z,1.43
2018-04-14T01:54:57.139Z,1.33
2018-04-14T01:55:59.632Z,1.30
2018-04-14T01:57:02.178Z,1.40
2018-04-14T01:58:04.736Z,1.10
2018-04-14T01:59:07.215Z,1.30
2018-04-14T02:00:09.753Z,1.30
2018-04-14T02:01:12.313Z,1.10
2018-04-14T02:02:14.837Z,1.20
2018-04-14T02:03:17.325Z,1.20
2018-04-14T02:04:19.827Z,1.20
2018-04-14T02:05:22.320Z,1.30
2018-04-14T02:06:24.817Z,1.33
2018-04-14T02:07:27.322Z,1.40
2018-04-14T02:08:29.817Z,1.50
2018-04-14T02:09:32.290Z,1.50
2018-04-14T02:10:34.772Z,1.10
2018-04-14T02:11:37.261Z,1.53
2018-04-14T02:12:39.769Z,1.50
2018-04-14T02:13:42.276Z,1.57
2018-04-14T02:14:44.746Z,1.30
2018-04-14T02:15:47.234Z,1.17
2018-04-14T02:16:49.744Z,1.40
2018-04-14T02:17:52.234Z,1.20
2018-04-14T02:18:54.741Z,1.50
2018-04-14T02:19:57.229Z,1.37
2018-04-14T02:20:59.713Z,1.10
2018-04-14T02:22:02.261Z,1.40
2018-04-14T02:23:04.850Z,1.60
2018-04-14T02:24:07.336Z,1.17
2018-04-14T02:25:09.828Z,1.27
2018-04-14T02:26:12.298Z,1.10
2018-04-14T02:27:14.789Z,1.30
2018-04-14T02:28:17.338Z,1.53
2018-04-14T02:29:19.815Z,1.20
2018-04-14T02:30:22.358Z,1.27
2018-04-14T02:31:24.918Z,1.30
2018-04-14T02:32:27.417Z,1.17
2018-04-14T02:33:29.924Z,1.30
2018-04-14T02:34:32.427Z,1.30
2018-04-14T02:35:34.934Z,1.30
2018-04-14T02:36:37.440Z,1.40
2018-04-14T02:37:39.925Z,1.27
2018-04-14T02:38:42.421Z,1.60
2018-04-14T02:39:44.925Z,1.00
2018-04-14T02:40:47.395Z,1.33
2018-04-14T02:41:49.893Z,1.23
2018-04-14T02:42:52.367Z,1.20
2018-04-14T02:43:54.873Z,1.40
2018-04-14T02:44:57.367Z,1.27
2018-04-14T02:45:59.873Z,1.20
2018-04-14T02:47:02.354Z,1.13
2018-04-14T02:48:04.845Z,1.40
2018-04-14T02:49:07.367Z,1.40
2018-04-14T02:50:09.876Z,1.43
2018-04-14T02:51:12.365Z,1.50
2018-04-14T02:52:14.865Z,1.30
2018-04-14T02:53:17.364Z,1.13
2018-04-14T02:54:19.873Z,1.30
2018-04-14T02:55:22.346Z,1.20
2018-04-14T02:56:24.829Z,1.20
2018-04-14T02:57:27.380Z,1.13
2018-04-14T02:58:29.887Z,1.37
2018-04-14T02:59:32.429Z,1.17
2018-04-14T03:00:34.964Z,1.43
2018-04-14T03:01:37.443Z,1.30
2018-04-14T03:02:39.981Z,1.30
2018-04-14T03:03:42.485Z,1.20
2018-04-14T03:04:44.998Z,1.20
2018-04-14T03:05:47.471Z,1.20
2018-04-14T03:06:50.025Z,1.13
2018-04-14T03:07:52.517Z,1.40
2018-04-14T03:08:54.998Z,1.43
2018-04-14T03:09:57.506Z,1.30
2018-04-14T03:11:00.028Z,1.23
2018-04-14T03:12:02.531Z,1.20
2018-04-14T03:13:05.025Z,1.47
2018-04-14T03:14:07.508Z,1.27
2018-04-14T03:15:10.029Z,1.10
2018-04-14T03:16:12.513Z,1.33
2018-04-14T03:17:14.986Z,1.30
2018-04-14T03:18:17.468Z,1.40
2018-04-14T03:19:19.956Z,1.10
2018-04-14T03:20:22.479Z,1.37
2018-04-14T03:21:24.982Z,1.10
2018-04-14T03:22:27.460Z,1.00
2018-04-14T03:23:29.963Z,1.30
2018-04-14T03:24:32.461Z,1.50
2018-04-14T03:25:35.827Z,1.30
2018-04-14T03:26:38.335Z,1.37
2018-04-14T03:27:40.819Z,1.20
2018-04-14T03:28:43.343Z,1.07
2018-04-14T03:29:45.828Z,1.10
2018-04-14T03:30:48.347Z,1.07
2018-04-14T03:31:50.819Z,1.40
2018-04-14T03:32:53.302Z,1.00
2018-04-14T03:33:55.802Z,1.20
2018-04-14T03:34:58.298Z,1.50
2018-04-14T03:36:00.793Z,1.10
2018-04-14T03:37:03.295Z,1.07
2018-04-14T03:38:05.767Z,1.20
2018-04-14T03:39:08.257Z,1.17
2018-04-14T03:40:10.744Z,1.13
2018-04-14T03:41:13.256Z,1.30
2018-04-14T03:42:15.752Z,1.23
2018-04-14T03:43:18.236Z,1.10
2018-04-14T03:44:20.725Z,1.30
2018-04-14T03:45:23.218Z,1.40
2018-04-14T03:46:25.752Z,1.20
2018-04-14T03:47:28.239Z,1.13
2018-04-14T03:48:30.714Z,1.03
2018-04-14T03:49:33.187Z,1.30
2018-04-14T03:50:35.688Z,1.30
2018-04-14T03:51:38.236Z,1.27
2018-04-14T03:52:40.738Z,1.17
2018-04-14T03:53:43.245Z,1.30
2018-04-14T03:54:45.737Z,1.07
2018-04-14T03:55:48.246Z,1.10
2018-04-14T03:56:50.739Z,1.37
2018-04-14T03:57:53.228Z,1.40
2018-04-14T03:58:55.733Z,0.93
2018-04-14T03:59:58.243Z,0.80
2018-04-14T04:01:00.733Z,1.10
2018-04-14T04:02:03.253Z,1.20
2018-04-14T04:03:05.759Z,1.20
2018-04-14T04:04:08.342Z,1.10
2018-04-14T04:05:10.819Z,1.00
2018-04-14T04:06:13.433Z,1.17
2018-04-14T04:07:15.926Z,1.13
2018-04-14T04:08:18.425Z,1.10
2018-04-14T04:09:20.909Z,1.20
2018-04-14T04:10:23.409Z,1.30
2018-04-14T04:11:25.881Z,1.20
2018-04-14T04:12:28.392Z,1.10
2018-04-14T04:13:30.896Z,1.37
2018-04-14T04:14:33.386Z,1.17
2018-04-14T04:15:35.923Z,1.00
2018-04-14T04:16:38.386Z,1.07
2018-04-14T04:17:40.884Z,0.97
2018-04-14T04:18:55.155Z,1.20
2018-04-14T04:20:09.655Z,1.07
2018-04-14T04:21:24.085Z,1.40
2018-04-14T04:22:38.268Z,1.00
2018-04-14T04:23:52.706Z,1.03
2018-04-14T04:26:33.319Z,0.90
2018-04-14T04:27:35.831Z,1.03
2018-04-14T04:28:38.326Z,1.10
2018-04-14T04:29:40.795Z,1.10
2018-04-14T04:30:43.309Z,0.97
2018-04-14T04:31:45.801Z,1.20
2018-04-14T04:32:48.307Z,0.90
2018-04-14T04:33:50.799Z,0.90
2018-04-14T04:34:53.326Z,1.10
2018-04-14T04:35:55.880Z,1.37
2018-04-14T04:36:58.355Z,1.17
2018-04-14T04:38:00.822Z,0.90
2018-04-14T04:39:03.777Z,0.97
2018-04-14T04:40:06.259Z,1.10
2018-04-14T04:41:08.780Z,1.10
2018-04-14T04:42:11.303Z,1.43
2018-04-14T04:43:13.857Z,1.03
2018-04-14T04:44:16.326Z,1.03
2018-04-14T04:45:18.798Z,1.03
2018-04-14T04:46:21.281Z,1.30
2018-04-14T04:47:23.842Z,1.10
2018-04-14T04:48:26.347Z,0.80
2018-04-14T04:49:28.871Z,1.23
2018-04-14T04:50:31.384Z,1.47
2018-04-14T04:51:33.979Z,1.10
2018-04-14T04:52:36.468Z,1.03
2018-04-14T04:53:38.996Z,1.00
2018-04-14T04:54:41.537Z,0.90
2018-04-14T04:55:44.080Z,1.13
2018-04-14T04:56:46.565Z,1.27
2018-04-14T04:57:49.085Z,1.07
2018-04-14T04:58:51.559Z,1.10
2018-04-14T04:59:54.082Z,1.40
2018-04-14T05:00:56.578Z,1.20
2018-04-14T05:01:59.069Z,1.43
2018-04-14T05:03:01.575Z,1.20
2018-04-14T05:04:04.086Z,1.30
2018-04-14T05:05:06.615Z,1.60
2018-04-14T05:06:09.087Z,1.80
2018-04-14T05:07:11.577Z,1.60
2018-04-14T05:08:14.079Z,1.57
2018-04-14T05:09:16.558Z,2.10
2018-04-14T05:10:19.083Z,2.10
2018-04-14T05:11:21.598Z,2.27
2018-04-14T05:12:24.083Z,2.67
2018-04-14T05:13:26.568Z,2.70
2018-04-14T05:14:29.064Z,2.33
2018-04-14T05:15:31.614Z,2.90
2018-04-14T05:16:34.194Z,2.80
2018-04-14T05:17:36.857Z,2.30
2018-04-14T05:18:39.365Z,2.50
2018-04-14T05:19:41.868Z,2.10
2018-04-14T05:20:44.401Z,3.57
2018-04-14T05:21:46.887Z,2.47
2018-04-14T05:22:49.377Z,2.93
2018-04-14T05:23:51.851Z,2.60
2018-04-14T05:24:54.318Z,2.20
2018-04-14T05:25:56.928Z,2.37
2018-04-14T05:26:59.417Z,2.70
2018-04-14T05:28:01.946Z,2.70
2018-04-14T05:29:04.505Z,2.30
2018-04-14T05:30:06.997Z,2.67
2018-04-14T05:31:09.510Z,2.33
2018-04-14T05:32:12.082Z,2.33
2018-04-14T05:33:14.641Z,2.73
2018-04-14T05:34:17.206Z,2.10
2018-04-14T05:35:19.767Z,2.30
2018-04-14T05:36:22.322Z,2.70
2018-04-14T05:37:24.891Z,2.20
2018-04-14T05:38:27.443Z,2.43
2018-04-14T05:39:30.003Z,2.10
2018-04-14T05:40:32.565Z,2.43
2018-04-14T05:41:35.075Z,1.90
2018-04-14T05:42:37.583Z,2.47
2018-04-14T05:43:40.067Z,2.20
2018-04-14T05:44:42.566Z,2.30
2018-04-14T05:45:45.062Z,2.97
2018-04-14T05:46:47.564Z,2.53
2018-04-14T05:47:50.046Z,2.60
2018-04-14T05:48:52.538Z,1.83
2018-04-14T05:49:55.030Z,2.47
2018-04-14T05:50:57.517Z,2.30
2018-04-14T05:52:00.072Z,3.10
2018-04-14T05:53:02.565Z,2.50
2018-04-14T05:54:05.042Z,3.10
2018-04-14T05:55:07.524Z,3.00
2018-04-14T05:56:10.032Z,2.30
2018-04-14T05:57:12.541Z,2.20
2018-04-14T05:58:15.010Z,2.13
2018-04-14T05:59:17.519Z,2.50
2018-04-14T06:00:20.017Z,2.20
2018-04-14T06:01:22.505Z,2.00
2018-04-14T06:02:25.047Z,2.90
2018-04-14T06:03:27.555Z,2.40
2018-04-14T06:04:30.035Z,2.27
2018-04-14T06:05:32.574Z,2.47
2018-04-14T06:06:35.074Z,2.33
2018-04-14T06:07:37.597Z,2.40
2018-04-14T06:08:40.107Z,2.10
2018-04-14T06:09:42.579Z,1.87
2018-04-14T06:10:45.073Z,2.60
2018-04-14T06:11:47.565Z,1.80
2018-04-14T06:12:50.085Z,2.33
2018-04-14T06:13:52.644Z,2.40
2018-04-14T06:14:55.222Z,2.63
2018-04-14T06:15:57.712Z,2.17
2018-04-14T06:17:00.205Z,2.00
2018-04-14T06:18:02.792Z,2.23
2018-04-14T06:19:05.278Z,1.83
2018-04-14T06:20:07.769Z,2.00
2018-04-14T06:21:10.252Z,1.87
2018-04-14T06:22:12.841Z,1.90
2018-04-14T06:23:15.282Z,1.90
2018-04-14T06:24:17.774Z,1.70
2018-04-14T06:25:20.280Z,2.50
2018-04-14T06:26:22.763Z,2.20
2018-04-14T06:27:25.311Z,2.00
2018-04-14T06:28:27.851Z,3.03
2018-04-14T06:29:30.432Z,1.80
2018-04-14T06:30:32.943Z,2.83
2018-04-14T06:31:35.436Z,1.90
2018-04-14T06:32:37.962Z,2.00
2018-04-14T06:33:40.491Z,1.80
2018-04-14T06:34:43.024Z,2.17
2018-04-14T06:35:45.521Z,2.13
2018-04-14T06:36:48.031Z,1.97
2018-04-14T06:37:50.523Z,1.50
2018-04-14T06:38:53.049Z,1.53
2018-04-14T06:39:55.541Z,1.63
2018-04-14T06:40:58.080Z,1.93
2018-04-14T06:42:00.559Z,1.87
2018-04-14T06:43:03.096Z,1.50
2018-04-14T06:44:05.680Z,1.57
2018-04-14T06:45:08.125Z,1.47
2018-04-14T06:46:10.675Z,1.50
2018-04-14T06:47:13.235Z,2.00
2018-04-14T06:48:15.728Z,1.73
2018-04-14T06:49:18.246Z,1.63
2018-04-14T06:50:20.740Z,2.00
2018-04-14T06:51:23.226Z,1.50
2018-04-14T06:52:25.759Z,1.73
2018-04-14T06:53:28.275Z,1.80
2018-04-14T06:54:30.795Z,1.73
2018-04-14T06:55:33.309Z,1.80
2018-04-14T06:56:35.815Z,1.50
2018-04-14T06:57:38.298Z,1.83
2018-04-14T06:58:40.887Z,1.73
2018-04-14T06:59:43.392Z,1.67
2018-04-14T07:00:45.885Z,1.77
2018-04-14T07:01:48.387Z,1.40
2018-04-14T07:02:50.862Z,1.73
2018-04-14T07:03:53.373Z,1.60
2018-04-14T07:04:55.881Z,1.90
2018-04-14T07:05:58.395Z,1.60
2018-04-14T07:07:00.957Z,1.47
2018-04-14T07:08:03.520Z,1.30
2018-04-14T07:09:06.846Z,2.00
2018-04-14T07:10:09.349Z,1.50
2018-04-14T07:11:11.867Z,1.60
2018-04-14T07:12:14.375Z,1.90
2018-04-14T07:13:16.901Z,2.17
2018-04-14T07:14:19.378Z,1.60
2018-04-14T07:15:21.886Z,1.40
2018-04-14T07:16:24.406Z,1.40
2018-04-14T07:17:26.901Z,2.17
2018-04-14T07:18:29.401Z,1.60
2018-04-14T07:19:31.893Z,2.03
2018-04-14T07:20:34.415Z,1.33
2018-04-14T07:21:36.911Z,1.57
2018-04-14T07:22:39.407Z,1.70
2018-04-14T07:23:41.908Z,1.40
2018-04-14T07:24:44.405Z,1.70
2018-04-14T07:25:46.920Z,1.60
2018-04-14T07:26:49.455Z,1.53
2018-04-14T07:27:51.954Z,1.93
2018-04-14T07:28:54.441Z,1.90
2018-04-14T07:29:56.972Z,1.50
2018-04-14T07:30:59.531Z,1.40
2018-04-14T07:32:02.039Z,1.93
2018-04-14T07:33:04.536Z,1.83
2018-04-14T07:34:07.030Z,1.87
2018-04-14T07:35:09.529Z,1.50
2018-04-14T07:36:12.068Z,1.57
2018-04-14T07:37:14.552Z,1.70
2018-04-14T07:38:17.026Z,1.50
2018-04-14T07:39:19.517Z,1.50
2018-04-14T07:40:22.007Z,1.50
2018-04-14T07:41:24.522Z,1.70
2018-04-14T07:42:27.009Z,1.60
2018-04-14T07:43:29.479Z,1.80
2018-04-14T07:44:31.954Z,1.67
2018-04-14T07:45:34.499Z,1.67
2018-04-14T07:46:37.007Z,1.60
2018-04-14T07:47:39.497Z,1.63
2018-04-14T07:48:41.990Z,1.50
2018-04-14T07:49:44.485Z,2.20
2018-04-14T07:50:46.977Z,2.10
2018-04-14T07:51:49.480Z,1.70
2018-04-14T07:52:51.967Z,1.43
2018-04-14T07:53:54.459Z,2.07
2018-04-14T07:54:56.960Z,1.60
2018-04-14T07:55:59.443Z,1.40
2018-04-14T07:57:01.978Z,1.97
2018-04-14T07:58:04.536Z,1.90
2018-04-14T07:59:07.096Z,2.03
2018-04-14T08:00:09.656Z,1.70
2018-04-14T08:01:12.141Z,1.63
2018-04-14T08:02:14.654Z,1.60
2018-04-14T08:03:17.144Z,1.80
2018-04-14T08:04:19.653Z,1.73
2018-04-14T08:05:22.163Z,1.67
2018-04-14T08:06:24.690Z,1.90
2018-04-14T08:07:27.260Z,1.80
2018-04-14T08:08:29.766Z,2.00
2018-04-14T08:09:32.236Z,1.73
2018-04-14T08:10:34.727Z,1.70
2018-04-14T08:11:37.355Z,2.00
2018-04-14T08:12:39.765Z,1.73
2018-04-14T08:13:42.280Z,1.80
2018-04-14T08:14:44.756Z,2.50
2018-04-14T08:15:47.252Z,1.93
2018-04-14T08:16:49.767Z,1.93
2018-04-14T08:17:52.296Z,1.80
2018-04-14T08:18:54.811Z,2.27
2018-04-14T08:19:57.297Z,2.20
2018-04-14T08:20:59.800Z,2.00
2018-04-14T08:22:02.278Z,2.07
2018-04-14T08:23:04.773Z,2.17
2018-04-14T08:24:07.283Z,2.10
2018-04-14T08:25:09.875Z,1.90
2018-04-14T08:26:12.362Z,2.37
2018-04-14T08:27:14.888Z,2.47
2018-04-14T08:28:17.452Z,2.13
2018-04-14T08:29:19.963Z,1.60
2018-04-14T08:30:22.451Z,2.40
2018-04-14T08:31:24.929Z,2.10
2018-04-14T08:32:27.466Z,2.23
2018-04-14T08:33:30.302Z,1.97
2018-04-14T08:34:32.797Z,2.10
2018-04-14T08:35:35.298Z,2.20
2018-04-14T08:36:37.824Z,2.10
2018-04-14T08:37:40.345Z,2.23
2018-04-14T08:38:42.880Z,2.30
2018-04-14T08:39:45.373Z,2.30
2018-04-14T08:40:47.854Z,2.17
2018-04-14T08:41:50.353Z,2.20
2018-04-14T08:42:52.883Z,2.33
2018-04-14T08:43:55.393Z,2.20
2018-04-14T08:44:59.035Z,2.87
2018-04-14T08:46:01.901Z,2.67
2018-04-14T08:47:04.465Z,2.67
2018-04-14T08:48:06.961Z,2.17
2018-04-14T08:49:10.421Z,2.80
2018-04-14T08:50:12.947Z,2.73
2018-04-14T08:51:15.433Z,2.70
2018-04-14T08:52:17.925Z,3.20
2018-04-14T08:53:20.430Z,3.07
2018-04-14T08:54:22.964Z,3.20
2018-04-14T08:55:25.454Z,3.07
2018-04-14T08:56:28.241Z,3.07
2018-04-14T08:57:30.817Z,3.47
2018-04-14T08:58:33.301Z,3.27
2018-04-14T08:59:35.856Z,2.90
2018-04-14T09:00:38.439Z,3.07
2018-04-14T09:01:41.303Z,3.10
2018-04-14T09:02:45.406Z,3.20
2018-04-14T09:03:47.905Z,3.00
2018-04-14T09:04:52.035Z,3.70
2018-04-14T09:05:55.705Z,2.93
2018-04-14T09:06:58.182Z,3.27
2018-04-14T09:08:00.650Z,3.30
2018-04-14T09:09:03.658Z,3.70
2018-04-14T09:10:06.413Z,3.50
2018-04-14T09:11:08.927Z,3.10
2018-04-14T09:12:11.425Z,3.10
2018-04-14T09:13:14.833Z,3.53
2018-04-14T09:14:17.407Z,3.60
2018-04-14T09:15:19.926Z,3.47
2018-04-14T09:16:22.437Z,3.27
2018-04-14T09:17:25.071Z,3.30
2018-04-14T09:18:27.580Z,3.90
2018-04-14T09:19:30.073Z,3.40
2018-04-14T09:20:32.592Z,4.07
2018-04-14T09:21:35.101Z,4.20
2018-04-14T09:22:37.589Z,3.60
2018-04-14T09:23:40.072Z,4.33
2018-04-14T09:24:42.557Z,4.43
2018-04-14T09:25:45.506Z,4.50
2018-04-14T09:26:48.537Z,4.00
2018-04-14T09:27:51.968Z,3.80
2018-04-14T09:28:54.493Z,4.07
2018-04-14T09:29:57.004Z,4.70
2018-04-14T09:31:00.638Z,4.20
2018-04-14T09:32:03.142Z,4.20
2018-04-14T09:33:05.653Z,4.70
2018-04-14T09:34:08.171Z,4.33
2018-04-14T09:35:10.650Z,4.40
2018-04-14T09:36:13.159Z,4.53
2018-04-14T09:37:15.711Z,4.90
2018-04-14T09:38:18.206Z,5.07
2018-04-14T09:39:20.709Z,4.90
2018-04-14T09:40:23.240Z,5.50
2018-04-14T09:41:25.771Z,5.17
2018-04-14T09:42:28.284Z,4.80
2018-04-14T09:43:30.773Z,5.47
2018-04-14T09:44:33.251Z,5.90
2018-04-14T09:45:35.751Z,5.63
2018-04-14T09:46:38.284Z,5.30
2018-04-14T09:47:40.791Z,6.07
2018-04-14T09:48:43.344Z,5.57
2018-04-14T09:49:45.894Z,5.77
2018-04-14T09:50:48.383Z,6.47
2018-04-14T09:51:50.924Z,6.27
2018-04-14T09:52:53.701Z,6.37
2018-04-14T09:53:56.274Z,6.40
2018-04-14T09:54:58.889Z,6.10
2018-04-14T09:56:01.423Z,6.27
2018-04-14T09:57:03.949Z,6.20
2018-04-14T09:58:06.430Z,7.10
2018-04-14T09:59:09.585Z,5.70
2018-04-14T10:00:27.141Z,6.40
2018-04-14T10:01:30.028Z,6.37
2018-04-14T10:02:38.219Z,6.17
2018-04-14T10:03:40.773Z,6.73
2018-04-14T10:04:43.351Z,6.47
2018-04-14T10:05:47.406Z,6.90
2018-04-14T10:06:50.017Z,6.23
2018-04-14T10:07:52.533Z,7.43
2018-04-14T10:08:55.301Z,6.67
2018-04-14T10:09:57.941Z,6.17
2018-04-14T10:11:03.667Z,6.40
2018-04-14T10:12:06.151Z,6.13
2018-04-14T10:13:08.684Z,6.90
2018-04-14T10:14:11.229Z,6.27
2018-04-14T10:15:13.728Z,6.53
2018-04-14T10:16:16.236Z,6.60
2018-04-14T10:17:18.746Z,7.10
2018-04-14T10:18:21.239Z,7.00
2018-04-14T10:19:23.739Z,7.33
2018-04-14T10:20:26.255Z,6.80
2018-04-14T10:21:28.763Z,6.13
2018-04-14T10:22:31.253Z,7.50
2018-04-14T10:23:33.771Z,7.13
2018-04-14T10:24:36.297Z,7.10
2018-04-14T10:25:38.812Z,7.87
2018-04-14T10:26:42.234Z,6.50
2018-04-14T10:27:44.898Z,7.43
2018-04-14T10:28:47.423Z,7.10
2018-04-14T10:29:51.663Z,7.43
2018-04-14T10:30:54.188Z,8.00
2018-04-14T10:31:58.217Z,7.60
2018-04-14T10:33:00.811Z,7.00
2018-04-14T10:34:03.966Z,7.70
2018-04-14T10:35:06.683Z,7.50
2018-04-14T10:36:10.650Z,8.07
2018-04-14T10:37:13.414Z,7.60
2018-04-14T10:38:15.965Z,7.60
2018-04-14T10:39:18.471Z,8.30
2018-04-14T10:40:21.031Z,8.00
2018-04-14T10:41:23.702Z,7.70
2018-04-14T10:42:26.332Z,7.83
2018-04-14T10:43:29.029Z,7.97
2018-04-14T10:44:31.622Z,7.37
2018-04-14T10:45:34.121Z,7.70
2018-04-14T10:46:36.611Z,7.63
2018-04-14T10:47:39.091Z,8.40
2018-04-14T10:48:41.581Z,8.30
2018-04-14T10:49:44.183Z,8.73
2018-04-14T10:50:46.693Z,8.33
2018-04-14T10:51:49.217Z,7.27
2018-04-14T10:52:51.705Z,8.03
2018-04-14T10:53:54.432Z,7.70
2018-04-14T10:54:59.240Z,8.57
2018-04-14T10:56:01.783Z,8.17
2018-04-14T10:57:04.281Z,8.03
2018-04-14T10:58:06.786Z,7.03
2018-04-14T10:59:09.277Z,7.93
2018-04-14T11:00:11.821Z,7.40
2018-04-14T11:01:14.304Z,7.73
2018-04-14T11:02:16.801Z,7.90
2018-04-14T11:03:19.309Z,8.07
2018-04-14T11:04:21.873Z,8.00
2018-04-14T11:05:24.415Z,8.03
2018-04-14T11:06:26.944Z,8.20
2018-04-14T11:07:29.433Z,7.70
2018-04-14T11:08:31.953Z,8.40
2018-04-14T11:09:34.465Z,8.13
2018-04-14T11:10:36.981Z,8.90
2018-04-14T11:11:39.471Z,8.30
2018-04-14T11:12:42.045Z,8.20
2018-04-14T11:13:44.605Z,8.30
2018-04-14T11:14:47.090Z,8.47
2018-04-14T11:15:49.696Z,9.17
2018-04-14T11:16:52.202Z,8.20
2018-04-14T11:17:54.712Z,8.93
2018-04-14T11:18:57.195Z,9.40
2018-04-14T11:19:59.699Z,8.93
2018-04-14T11:21:02.224Z,9.83
2018-04-14T11:22:04.729Z,9.67
2018-04-14T11:23:07.235Z,8.93
2018-04-14T11:24:09.725Z,8.93
2018-04-14T11:25:12.237Z,9.50
2018-04-14T11:26:14.754Z,9.40
2018-04-14T11:27:17.241Z,9.70
2018-04-14T11:28:19.755Z,8.30
2018-04-14T11:29:22.270Z,9.40
2018-04-14T11:30:24.780Z,9.63
2018-04-14T11:31:27.319Z,8.90
2018-04-14T11:32:29.816Z,9.30
2018-04-14T11:33:32.296Z,8.70
2018-04-14T11:34:34.812Z,9.53
2018-04-14T11:35:37.329Z,10.40
2018-04-14T11:36:39.826Z,9.90
2018-04-14T11:37:42.380Z,8.87
2018-04-14T11:38:44.873Z,8.20
2018-04-14T11:39:47.365Z,9.30
2018-04-14T11:40:49.865Z,9.70
2018-04-14T11:41:52.402Z,8.40
2018-04-14T11:42:54.895Z,9.13
2018-04-14T11:43:57.375Z,8.90
2018-04-14T11:44:59.891Z,8.80
2018-04-14T11:46:02.465Z,9.00
2018-04-14T11:47:05.086Z,9.00
2018-04-14T11:48:07.644Z,8.73
2018-04-14T11:49:10.147Z,9.30
2018-04-14T11:50:12.725Z,8.63
2018-04-14T11:51:15.215Z,9.70
2018-04-14T11:52:17.725Z,8.60
2018-04-14T11:53:20.203Z,8.90
2018-04-14T11:54:22.712Z,8.70
2018-04-14T11:55:25.253Z,9.90
2018-04-14T11:56:27.793Z,8.47
2018-04-14T11:57:30.316Z,8.70
2018-04-14T11:58:32.828Z,8.80
2018-04-14T11:59:35.395Z,9.00
2018-04-14T12:00:37.956Z,8.80
2018-04-14T12:01:40.453Z,8.57
2018-04-14T12:02:42.983Z,8.83
2018-04-14T12:03:45.497Z,9.80
2018-04-14T12:04:48.004Z,9.20
2018-04-14T12:05:50.537Z,9.67
2018-04-14T12:06:53.038Z,8.90
2018-04-14T12:07:55.561Z,8.63
2018-04-14T12:08:58.843Z,8.50
2018-04-14T12:10:01.327Z,9.47
2018-04-14T12:11:03.814Z,9.67
2018-04-14T12:12:06.309Z,9.80
2018-04-14T12:13:08.867Z,10.10
2018-04-14T12:14:11.387Z,9.80
2018-04-14T12:15:13.899Z,9.10
2018-04-14T12:16:16.407Z,10.17
2018-04-14T12:17:19.001Z,9.20
2018-04-14T12:18:21.578Z,10.07
2018-04-14T12:19:24.076Z,10.70
2018-04-14T12:20:26.591Z,10.30
2018-04-14T12:21:29.089Z,9.63
2018-04-14T12:22:31.573Z,9.80
2018-04-14T12:23:34.105Z,9.37
2018-04-14T12:24:36.631Z,10.37
2018-04-14T12:25:39.139Z,9.20
2018-04-14T12:26:42.541Z,9.90
2018-04-14T12:27:45.060Z,10.03
2018-04-14T12:28:47.584Z,10.33
2018-04-14T12:29:50.099Z,10.70
2018-04-14T12:30:52.666Z,9.10
2018-04-14T12:31:55.143Z,9.70
2018-04-14T12:32:57.652Z,9.77
2018-04-14T12:34:00.169Z,9.17
2018-04-14T12:35:02.647Z,9.80
2018-04-14T12:36:05.164Z,9.30
2018-04-14T12:37:07.699Z,9.70
2018-04-14T12:38:10.239Z,9.63
2018-04-14T12:39:12.767Z,9.70
2018-04-14T12:40:15.255Z,10.13
2018-04-14T12:41:17.735Z,10.07
2018-04-14T12:42:20.233Z,10.70
2018-04-14T12:43:22.737Z,10.57
2018-04-14T12:44:25.242Z,9.53
2018-04-14T12:45:27.747Z,9.47
2018-04-14T12:46:30.245Z,9.40
2018-04-14T12:47:32.734Z,9.73
2018-04-14T12:48:35.241Z,9.60
2018-04-14T12:49:37.783Z,9.60
2018-04-14T12:50:40.289Z,9.23
2018-04-14T12:51:42.816Z,9.40
2018-04-14T12:52:45.313Z,10.40
2018-04-14T12:53:47.828Z,11.00
2018-04-14T12:54:50.360Z,9.77
2018-04-14T12:55:52.858Z,10.40
2018-04-14T12:56:55.392Z,11.10
2018-04-14T12:57:57.956Z,9.87
2018-04-14T12:59:00.513Z,10.10
2018-04-14T13:00:03.025Z,9.70
2018-04-14T13:01:05.514Z,9.73
2018-04-14T13:02:07.995Z,10.27
2018-04-14T13:03:10.540Z,9.57
2018-04-14T13:04:13.029Z,9.67
2018-04-14T13:05:15.559Z,9.47
2018-04-14T13:06:18.043Z,10.13
2018-04-14T13:07:20.555Z,10.13
2018-04-14T13:08:23.067Z,10.67
2018-04-14T13:09:25.564Z,10.57
2018-04-14T13:10:28.081Z,10.93
2018-04-14T13:11:30.566Z,11.27
2018-04-14T13:12:33.072Z,10.37
2018-04-14T13:13:35.575Z,10.60
2018-04-14T13:14:38.115Z,10.50
2018-04-14T13:15:40.698Z,10.23
2018-04-14T13:16:43.192Z,10.13
2018-04-14T13:17:45.705Z,10.17
2018-04-14T13:18:48.187Z,10.90
2018-04-14T13:19:50.670Z,10.03
2018-04-14T13:20:53.181Z,10.97
2018-04-14T13:21:55.678Z,9.80
2018-04-14T13:22:58.173Z,10.20
2018-04-14T13:24:00.681Z,10.40
2018-04-14T13:25:03.195Z,11.20
2018-04-14T13:26:05.696Z,9.37
2018-04-14T13:27:08.207Z,10.70
2018-04-14T13:28:10.700Z,9.40
2018-04-14T13:29:13.197Z,10.47
2018-04-14T13:30:15.686Z,10.33
2018-04-14T13:31:18.219Z,10.27
2018-04-14T13:32:20.752Z,10.37
2018-04-14T13:33:23.313Z,9.53
2018-04-14T13:34:25.873Z,10.80
2018-04-14T13:35:28.355Z,9.60
2018-04-14T13:36:30.881Z,10.80
2018-04-14T13:37:33.412Z,9.57
2018-04-14T13:38:35.886Z,9.90
2018-04-14T13:39:38.382Z,9.70
2018-04-14T13:40:40.895Z,9.80
2018-04-14T13:41:43.418Z,10.50
2018-04-14T13:42:45.907Z,10.30
2018-04-14T13:43:48.416Z,11.50
2018-04-14T13:44:50.931Z,10.13
2018-04-14T13:45:53.450Z,10.20
2018-04-14T13:46:55.947Z,10.40
2018-04-14T13:47:58.507Z,10.87
2018-04-14T13:49:01.016Z,10.63
2018-04-14T13:50:03.533Z,9.93
2018-04-14T13:51:06.014Z,9.53
2018-04-14T13:52:08.514Z,10.33
2018-04-14T13:53:11.034Z,10.90